Jeddo, Texas
Current Conditions -  °F | °C
As of 1:10 PM on Sunday 21 Dec 2014 (Local Time) from K3T5 Reporting Station
Broken Clouds Broken Clouds  
Wind Chill: 56°   Ceiling: 1500
Heat Index: 56°   Visibility: 10mi
Dew Point: 51°   Wind: 0mph
Humidity: 84%   Direction: NA
Pressure: 30"   Gusts: NA
Location:  29.8725°N, 97.3223°W
Report Text: K3T5 211910Z AUTO 00000KT 10SM BKN015 13/11 A3000 RMK AO2 T01320105
Loading
Personal Weather Stations






























Interactive Weather Map New forecast layout! Learn more

10-Day Weather Forecast

Advertisements
Track Severe Weather on mobile